Time;durP1;ratioP1;P1;durP2;ratioP2;P2;SDS_P1;SDS_P2;PMS_P1;PMS_P2;Temp;Humidity;BMP_temperature;BMP_pressure;BME280_temperature;BME280_humidity;BME280_pressure;Samples;Min_cycle;Max_cycle;Signal;HPM_P1;HPM_P2
2024/01/04 00:01:38;;;;;;;3.08;1.30;;;;;;;;;;5011477;28;92429;-76
2024/01/04 00:04:04;;;;;;;3.15;0.70;;;;;;;;;;5018194;28;92860;-76
2024/01/04 00:06:31;;;;;;;1.42;0.60;;;;;;;;;;5007493;28;94837;-76
2024/01/04 00:08:57;;;;;;;1.80;0.88;;;;;;;;;;4995900;28;92506;-76
2024/01/04 00:11:25;;;;;;;3.47;0.82;;;;;;;;;;4995887;28;92520;-77
2024/01/04 00:13:51;;;;;;;3.67;1.17;;;;;;;;;;4983744;28;93694;-76
2024/01/04 00:16:18;;;;;;;1.42;0.50;;;;;;;;;;5003088;28;92355;-76
2024/01/04 00:18:44;;;;;;;3.65;1.13;;;;;;;;;;5007621;28;92825;-76
2024/01/04 00:21:11;;;;;;;2.63;0.60;;;;;;;;;;5013038;28;93482;-76
2024/01/04 00:23:37;;;;;;;4.80;0.80;;;;;;;;;;5013483;28;92223;-76
2024/01/04 00:26:04;;;;;;;4.45;0.85;;;;;;;;;;5006484;28;93072;-76
2024/01/04 00:28:30;;;;;;;1.98;0.70;;;;;;;;;;5006964;28;92153;-76
2024/01/04 00:30:57;;;;;;;8.35;1.58;;;;;;;;;;5003525;28;94835;-76
2024/01/04 00:33:23;;;;;;;0.35;0.35;;;;;;;;;;5004319;28;92217;-76
2024/01/04 00:35:50;;;;;;;2.17;0.73;;;;;;;;;;5009609;28;93034;-76
2024/01/04 00:38:17;;;;;;;2.08;0.88;;;;;;;;;;5011480;28;94431;-76
2024/01/04 00:40:44;;;;;;;5.88;1.10;;;;;;;;;;5009589;28;92390;-76
2024/01/04 00:43:11;;;;;;;1.10;0.50;;;;;;;;;;5014394;28;92894;-76
2024/01/04 00:45:37;;;;;;;1.63;0.75;;;;;;;;;;5001442;28;92202;-76
2024/01/04 00:48:04;;;;;;;1.42;1.10;;;;;;;;;;5010385;28;94590;-76
2024/01/04 00:50:30;;;;;;;2.65;0.95;;;;;;;;;;5013223;28;92642;-76
2024/01/04 00:52:57;;;;;;;2.97;0.80;;;;;;;;;;4980517;28;92394;-76
2024/01/04 00:55:34;;;;;;;0.82;0.47;;;;;;;;;;5001019;28;94709;-76
2024/01/04 00:58:05;;;;;;;0.60;0.47;;;;;;;;;;4999058;28;93944;-76
2024/01/04 01:00:32;;;;;;;2.85;0.98;;;;;;;;;;5010906;28;95972;-76
2024/01/04 01:02:59;;;;;;;3.50;0.77;;;;;;;;;;5012469;28;92341;-76
2024/01/04 01:05:25;;;;;;;2.53;0.70;;;;;;;;;;4996105;28;93728;-76
2024/01/04 01:07:52;;;;;;;1.80;0.80;;;;;;;;;;4993972;28;94262;-76
2024/01/04 01:10:19;;;;;;;4.60;1.02;;;;;;;;;;4994913;28;92460;-76
2024/01/04 01:12:45;;;;;;;2.28;0.70;;;;;;;;;;4994980;28;92428;-76
2024/01/04 01:15:12;;;;;;;1.80;0.60;;;;;;;;;;4994294;28;92554;-76
2024/01/04 01:17:38;;;;;;;1.08;0.60;;;;;;;;;;4993697;28;92605;-75
2024/01/04 01:20:07;;;;;;;2.33;0.85;;;;;;;;;;4992460;28;95591;-76
2024/01/04 01:22:33;;;;;;;3.33;0.80;;;;;;;;;;4994287;28;92414;-76
2024/01/04 01:25:00;;;;;;;2.95;0.70;;;;;;;;;;4992885;28;94203;-76
2024/01/04 01:27:26;;;;;;;0.70;0.43;;;;;;;;;;4997672;28;93132;-76
2024/01/04 01:29:53;;;;;;;1.17;0.57;;;;;;;;;;4993158;28;92811;-76
2024/01/04 01:32:19;;;;;;;2.38;0.73;;;;;;;;;;4976005;28;95523;-76
2024/01/04 01:34:46;;;;;;;1.50;0.77;;;;;;;;;;4994389;28;92366;-76
2024/01/04 01:37:13;;;;;;;1.27;0.63;;;;;;;;;;4993594;28;92875;-76
2024/01/04 01:39:40;;;;;;;3.22;1.08;;;;;;;;;;4994766;28;92892;-75
2024/01/04 01:42:06;;;;;;;1.83;0.70;;;;;;;;;;4993990;28;92757;-76
2024/01/04 01:44:33;;;;;;;5.28;0.57;;;;;;;;;;4991136;28;94845;-76
2024/01/04 01:46:59;;;;;;;4.38;0.80;;;;;;;;;;4992712;28;92404;-76
2024/01/04 01:49:26;;;;;;;0.82;0.55;;;;;;;;;;4996940;28;93292;-75
2024/01/04 01:51:53;;;;;;;1.20;0.43;;;;;;;;;;4992568;28;94021;-76
2024/01/04 01:54:20;;;;;;;0.88;0.45;;;;;;;;;;4991949;28;95110;-76
2024/01/04 01:56:46;;;;;;;1.15;0.70;;;;;;;;;;4994225;28;92860;-76
2024/01/04 01:59:13;;;;;;;2.08;0.75;;;;;;;;;;4992594;28;95001;-76
2024/01/04 02:01:52;;;;;;;3.63;0.60;;;;;;;;;;4997031;28;94642;-76
2024/01/04 02:04:18;;;;;;;0.85;0.50;;;;;;;;;;5010837;28;94113;-76
2024/01/04 02:06:45;;;;;;;7.25;1.13;;;;;;;;;;5008653;28;94632;-76
2024/01/04 02:09:11;;;;;;;3.58;0.80;;;;;;;;;;5006007;28;96125;-76
2024/01/04 02:11:39;;;;;;;4.65;1.52;;;;;;;;;;5006068;28;95298;-76
2024/01/04 02:14:06;;;;;;;1.48;0.57;;;;;;;;;;4993980;28;92426;-76
2024/01/04 02:16:32;;;;;;;2.05;0.80;;;;;;;;;;4975468;28;94513;-76
2024/01/04 02:18:59;;;;;;;2.47;0.70;;;;;;;;;;4992122;28;94031;-76
2024/01/04 02:21:25;;;;;;;2.60;0.93;;;;;;;;;;4991773;28;93833;-76
2024/01/04 02:23:52;;;;;;;3.40;0.57;;;;;;;;;;4992344;28;94539;-76
2024/01/04 02:26:18;;;;;;;1.67;0.70;;;;;;;;;;4992345;28;94509;-75
2024/01/04 02:28:45;;;;;;;3.00;0.68;;;;;;;;;;4993904;28;92412;-76
2024/01/04 02:31:11;;;;;;;2.25;0.60;;;;;;;;;;4995239;28;95487;-76
2024/01/04 02:33:37;;;;;;;1.40;0.50;;;;;;;;;;4991559;28;94815;-76
2024/01/04 02:36:04;;;;;;;2.88;0.50;;;;;;;;;;4993549;28;94090;-76
2024/01/04 02:38:31;;;;;;;2.25;0.45;;;;;;;;;;4996405;28;92420;-76
2024/01/04 02:40:57;;;;;;;4.50;0.50;;;;;;;;;;4991865;28;94877;-76
2024/01/04 02:43:24;;;;;;;0.85;0.60;;;;;;;;;;4993596;28;92266;-76
2024/01/04 02:45:50;;;;;;;2.47;0.85;;;;;;;;;;5000003;28;93249;-76
2024/01/04 02:48:17;;;;;;;1.58;0.82;;;;;;;;;;5000404;28;94573;-76
2024/01/04 02:50:43;;;;;;;1.98;0.60;;;;;;;;;;5011442;28;94463;-76
2024/01/04 02:53:10;;;;;;;2.97;0.68;;;;;;;;;;5014100;28;94655;-76
2024/01/04 02:55:36;;;;;;;0.90;0.57;;;;;;;;;;5000159;28;93881;-76
2024/01/04 02:58:03;;;;;;;2.72;0.82;;;;;;;;;;5004116;28;96628;-76
2024/01/04 03:00:29;;;;;;;1.63;0.80;;;;;;;;;;4993258;28;92342;-76
2024/01/04 03:02:56;;;;;;;1.75;0.80;;;;;;;;;;5009635;28;92368;-76
2024/01/04 03:05:22;;;;;;;2.15;0.77;;;;;;;;;;5006773;28;94277;-76
2024/01/04 03:07:49;;;;;;;0.70;0.35;;;;;;;;;;5011950;28;92014;-76
2024/01/04 03:10:15;;;;;;;0.85;0.50;;;;;;;;;;4993675;28;92864;-76
2024/01/04 03:12:41;;;;;;;2.25;0.93;;;;;;;;;;4994435;28;92964;-75
2024/01/04 03:15:08;;;;;;;1.38;0.50;;;;;;;;;;4998033;28;92985;-75
2024/01/04 03:17:35;;;;;;;4.93;0.90;;;;;;;;;;4993548;28;94846;-75
2024/01/04 03:20:01;;;;;;;1.77;0.50;;;;;;;;;;4992851;28;92464;-76
2024/01/04 03:22:28;;;;;;;2.95;0.93;;;;;;;;;;4994334;28;94649;-76
2024/01/04 03:24:54;;;;;;;2.30;0.73;;;;;;;;;;4996208;28;92333;-75
2024/01/04 03:27:21;;;;;;;2.10;0.63;;;;;;;;;;4996380;28;93472;-76
2024/01/04 03:29:49;;;;;;;5.28;0.73;;;;;;;;;;4996174;28;92848;-75
2024/01/04 03:32:16;;;;;;;5.30;0.82;;;;;;;;;;4996329;28;92196;-76
2024/01/04 03:34:43;;;;;;;4.38;0.80;;;;;;;;;;4996240;28;92259;-76
2024/01/04 03:37:09;;;;;;;2.25;0.80;;;;;;;;;;4997642;28;94064;-76
2024/01/04 03:39:36;;;;;;;5.63;0.73;;;;;;;;;;4996752;28;91980;-76
2024/01/04 03:42:02;;;;;;;0.73;0.50;;;;;;;;;;4995972;28;92421;-76
2024/01/04 03:44:28;;;;;;;2.45;0.70;;;;;;;;;;4996393;28;92438;-76
2024/01/04 03:46:55;;;;;;;0.63;0.55;;;;;;;;;;4995359;28;94927;-76
2024/01/04 03:49:21;;;;;;;3.78;0.80;;;;;;;;;;5008333;28;96036;-76
2024/01/04 03:51:48;;;;;;;3.25;0.70;;;;;;;;;;5007514;28;93180;-76
2024/01/04 03:54:14;;;;;;;3.28;0.95;;;;;;;;;;5011548;28;92654;-76
2024/01/04 03:56:41;;;;;;;2.50;0.70;;;;;;;;;;5006070;28;93042;-76
2024/01/04 03:59:07;;;;;;;3.47;1.38;;;;;;;;;;5018358;28;93234;-76
2024/01/04 04:01:41;;;;;;;0.73;0.73;;;;;;;;;;5015550;28;92448;-76
2024/01/04 04:04:07;;;;;;;1.90;0.70;;;;;;;;;;5016092;28;91992;-76
2024/01/04 04:06:34;;;;;;;0.82;0.43;;;;;;;;;;5015831;28;92413;-76
2024/01/04 04:09:00;;;;;;;0.80;0.50;;;;;;;;;;5015677;28;92803;-76
2024/01/04 04:11:27;;;;;;;2.38;1.10;;;;;;;;;;5013453;28;94766;-76
2024/01/04 04:13:54;;;;;;;1.98;0.60;;;;;;;;;;5004256;28;92892;-76
2024/01/04 04:16:20;;;;;;;2.38;0.65;;;;;;;;;;5012892;28;92291;-76
2024/01/04 04:18:46;;;;;;;0.40;0.40;;;;;;;;;;5015653;28;94255;-75
2024/01/04 04:21:20;;;;;;;1.27;0.95;;;;;;;;;;5008949;28;94910;-75
2024/01/04 04:23:49;;;;;;;1.75;0.98;;;;;;;;;;4995634;28;92244;-76
2024/01/04 04:26:19;;;;;;;4.25;1.45;;;;;;;;;;4995407;28;92655;-75
2024/01/04 04:28:46;;;;;;;1.90;0.60;;;;;;;;;;5000634;28;92007;-76
2024/01/04 04:31:13;;;;;;;4.28;0.75;;;;;;;;;;5003987;28;93337;-76
2024/01/04 04:33:40;;;;;;;1.58;0.60;;;;;;;;;;5003250;28;92807;-76
2024/01/04 04:36:07;;;;;;;0.88;0.50;;;;;;;;;;4998271;28;94906;-76
2024/01/04 04:38:36;;;;;;;5.47;0.50;;;;;;;;;;4993783;28;92313;-76
2024/01/04 04:41:04;;;;;;;3.45;0.77;;;;;;;;;;4998055;28;92444;-75
2024/01/04 04:43:34;;;;;;;2.83;0.73;;;;;;;;;;4993672;28;92402;-76
2024/01/04 04:46:09;;;;;;;4.15;0.43;;;;;;;;;;4994949;28;92360;-76
2024/01/04 04:48:36;;;;;;;3.60;1.38;;;;;;;;;;4995269;28;93042;-76
2024/01/04 04:51:03;;;;;;;1.85;0.80;;;;;;;;;;4993559;28;92586;-76
2024/01/04 04:53:29;;;;;;;2.67;0.47;;;;;;;;;;4994857;28;92938;-76
2024/01/04 04:55:56;;;;;;;2.95;0.43;;;;;;;;;;4995690;28;92869;-76
2024/01/04 04:58:22;;;;;;;2.17;0.90;;;;;;;;;;4994985;28;92270;-76
2024/01/04 05:00:48;;;;;;;0.80;0.70;;;;;;;;;;4991801;28;94749;-76
2024/01/04 05:03:15;;;;;;;1.00;0.47;;;;;;;;;;4997854;28;94122;-77
2024/01/04 05:05:41;;;;;;;4.75;1.05;;;;;;;;;;5007082;28;93305;-77
2024/01/04 05:08:08;;;;;;;2.53;0.82;;;;;;;;;;5000822;28;92237;-77
2024/01/04 05:10:35;;;;;;;1.92;0.68;;;;;;;;;;5002124;28;92107;-77
2024/01/04 05:13:02;;;;;;;0.90;0.40;;;;;;;;;;4994155;28;94532;-77
2024/01/04 05:15:28;;;;;;;2.55;0.85;;;;;;;;;;5004910;28;92459;-77
2024/01/04 05:17:55;;;;;;;1.02;0.50;;;;;;;;;;4998439;28;92167;-77
2024/01/04 05:20:22;;;;;;;1.83;0.57;;;;;;;;;;4994615;28;92466;-77
2024/01/04 05:22:48;;;;;;;0.65;0.50;;;;;;;;;;4997136;28;92454;-77
2024/01/04 05:25:15;;;;;;;3.50;0.50;;;;;;;;;;4996527;28;94802;-77
2024/01/04 05:27:41;;;;;;;2.05;0.47;;;;;;;;;;4994519;28;93962;-77
2024/01/04 05:30:08;;;;;;;3.67;0.77;;;;;;;;;;4994416;28;92919;-77
2024/01/04 05:32:35;;;;;;;2.88;0.57;;;;;;;;;;4994701;28;92322;-77
2024/01/04 05:35:02;;;;;;;1.73;0.45;;;;;;;;;;4994336;28;92912;-77
2024/01/04 05:37:29;;;;;;;1.45;0.65;;;;;;;;;;4994489;28;93226;-77
2024/01/04 05:39:55;;;;;;;1.17;0.43;;;;;;;;;;4997255;28;92153;-77
2024/01/04 05:42:26;;;;;;;0.98;0.40;;;;;;;;;;4994642;28;92765;-77
2024/01/04 05:44:52;;;;;;;2.20;0.65;;;;;;;;;;4994161;28;92777;-77
2024/01/04 05:47:19;;;;;;;0.95;0.40;;;;;;;;;;4997123;28;92423;-77
2024/01/04 05:49:45;;;;;;;0.95;0.70;;;;;;;;;;4994188;28;94877;-77
2024/01/04 05:52:12;;;;;;;1.25;0.65;;;;;;;;;;4999083;28;92352;-77
2024/01/04 05:54:38;;;;;;;1.45;0.60;;;;;;;;;;4992656;28;92435;-77
2024/01/04 05:57:05;;;;;;;0.65;0.40;;;;;;;;;;4995560;28;94105;-77
2024/01/04 05:59:31;;;;;;;0.30;0.30;;;;;;;;;;4997317;28;92460;-77
2024/01/04 06:01:58;;;;;;;2.10;0.60;;;;;;;;;;4994028;28;92306;-77
2024/01/04 06:04:24;;;;;;;2.10;0.65;;;;;;;;;;4995604;28;92193;-77
2024/01/04 06:06:53;;;;;;;2.22;0.55;;;;;;;;;;5004216;28;92851;-77
2024/01/04 06:09:21;;;;;;;1.20;0.68;;;;;;;;;;4999218;28;92519;-77
2024/01/04 06:11:48;;;;;;;1.90;0.50;;;;;;;;;;4997233;28;93047;-77
2024/01/04 06:14:14;;;;;;;0.90;0.40;;;;;;;;;;4992313;28;94647;-77
2024/01/04 06:16:41;;;;;;;1.20;0.40;;;;;;;;;;4993740;28;92269;-77
2024/01/04 06:19:07;;;;;;;3.60;1.02;;;;;;;;;;4993825;28;92895;-77
2024/01/04 06:21:34;;;;;;;4.60;0.45;;;;;;;;;;4991856;28;93513;-77
2024/01/04 06:24:00;;;;;;;2.67;0.80;;;;;;;;;;4993971;28;92429;-77
2024/01/04 06:26:27;;;;;;;1.15;0.70;;;;;;;;;;4993504;28;92856;-77
2024/01/04 06:28:53;;;;;;;0.85;0.40;;;;;;;;;;4993848;28;92412;-77
2024/01/04 06:31:20;;;;;;;0.43;0.25;;;;;;;;;;5008626;28;92104;-77
2024/01/04 06:33:46;;;;;;;0.30;0.30;;;;;;;;;;4994049;28;92256;-77
2024/01/04 06:36:13;;;;;;;3.30;0.52;;;;;;;;;;5004247;28;94326;-77
2024/01/04 06:38:39;;;;;;;1.30;0.28;;;;;;;;;;5008678;28;94423;-77
2024/01/04 06:41:07;;;;;;;1.45;0.40;;;;;;;;;;4999999;28;94119;-77
2024/01/04 06:43:34;;;;;;;1.65;0.57;;;;;;;;;;4994342;28;94021;-77
2024/01/04 06:46:02;;;;;;;1.85;0.40;;;;;;;;;;5007205;28;93118;-77
2024/01/04 06:48:28;;;;;;;1.00;0.40;;;;;;;;;;5011297;28;92786;-77
2024/01/04 06:50:55;;;;;;;2.40;0.45;;;;;;;;;;5002100;28;93071;-77
2024/01/04 06:53:21;;;;;;;0.68;0.40;;;;;;;;;;5013163;28;92898;-77
2024/01/04 06:55:48;;;;;;;0.73;0.38;;;;;;;;;;5013164;28;92488;-77
2024/01/04 06:58:14;;;;;;;0.30;0.30;;;;;;;;;;5005933;28;92108;-77
2024/01/04 07:00:41;;;;;;;1.08;0.73;;;;;;;;;;4996329;28;92132;-77
2024/01/04 07:03:07;;;;;;;1.20;0.65;;;;;;;;;;5002189;28;95525;-77
2024/01/04 07:05:34;;;;;;;1.52;0.30;;;;;;;;;;5003448;28;93285;-77
2024/01/04 07:08:00;;;;;;;1.17;0.40;;;;;;;;;;5001642;28;92271;-77
2024/01/04 07:10:27;;;;;;;0.93;0.43;;;;;;;;;;5016741;28;93143;-77
2024/01/04 07:12:54;;;;;;;0.30;0.30;;;;;;;;;;5016274;28;93902;-77
2024/01/04 07:15:21;;;;;;;1.25;0.50;;;;;;;;;;5014786;28;92271;-77
2024/01/04 07:17:47;;;;;;;0.90;0.40;;;;;;;;;;5012980;28;92310;-77
2024/01/04 07:20:14;;;;;;;0.40;0.40;;;;;;;;;;5003488;28;91758;-77
2024/01/04 07:22:40;;;;;;;1.15;0.63;;;;;;;;;;5013718;28;92489;-78
2024/01/04 07:25:07;;;;;;;2.70;0.50;;;;;;;;;;5007733;28;93199;-77
2024/01/04 07:27:34;;;;;;;0.50;0.45;;;;;;;;;;5005631;28;94779;-77
2024/01/04 07:30:00;;;;;;;0.73;0.73;;;;;;;;;;5013242;28;92602;-77
2024/01/04 07:32:27;;;;;;;0.47;0.47;;;;;;;;;;5003473;28;92695;-77
2024/01/04 07:34:54;;;;;;;0.95;0.60;;;;;;;;;;5000302;28;92294;-77
2024/01/04 07:37:37;;;;;;;1.08;0.73;;;;;;;;;;4996642;28;92409;-77
2024/01/04 07:40:04;;;;;;;0.88;0.88;;;;;;;;;;4999203;28;92382;-77
2024/01/04 07:42:31;;;;;;;0.90;0.50;;;;;;;;;;4995802;28;92540;-77
2024/01/04 07:44:57;;;;;;;1.80;0.90;;;;;;;;;;4995462;28;94297;-77
2024/01/04 07:47:32;;;;;;;0.77;0.50;;;;;;;;;;4994809;28;92403;-77
2024/01/04 07:49:59;;;;;;;0.70;0.60;;;;;;;;;;4996317;28;92448;-77
2024/01/04 07:52:25;;;;;;;0.60;0.60;;;;;;;;;;5003464;28;94953;-77
2024/01/04 07:54:52;;;;;;;0.40;0.38;;;;;;;;;;5011000;28;93962;-77
2024/01/04 07:57:18;;;;;;;1.58;0.60;;;;;;;;;;5014360;28;92280;-77
2024/01/04 07:59:45;;;;;;;0.77;0.40;;;;;;;;;;4999181;28;92310;-77
2024/01/04 08:02:11;;;;;;;0.60;0.40;;;;;;;;;;4999808;28;92598;-77
2024/01/04 08:04:38;;;;;;;0.85;0.60;;;;;;;;;;4994762;28;92230;-77
2024/01/04 08:07:04;;;;;;;3.20;0.75;;;;;;;;;;4994953;28;92696;-77
2024/01/04 08:09:30;;;;;;;1.20;0.60;;;;;;;;;;4994046;28;92423;-77
2024/01/04 08:11:57;;;;;;;1.80;0.77;;;;;;;;;;4995675;28;92933;-77
2024/01/04 08:14:23;;;;;;;2.10;0.60;;;;;;;;;;4999458;28;95030;-77
2024/01/04 08:16:50;;;;;;;3.42;0.90;;;;;;;;;;4993117;28;95689;-77
2024/01/04 08:19:17;;;;;;;1.23;0.50;;;;;;;;;;4991332;28;94410;-77
2024/01/04 08:21:44;;;;;;;5.88;0.93;;;;;;;;;;5001934;28;92118;-77
2024/01/04 08:24:10;;;;;;;2.97;0.80;;;;;;;;;;4995729;28;92404;-76
2024/01/04 08:26:41;;;;;;;9.63;1.00;;;;;;;;;;5008241;28;92406;-78
2024/01/04 08:29:08;;;;;;;0.85;0.80;;;;;;;;;;5005962;28;92279;-78
2024/01/04 08:31:36;;;;;;;1.58;0.82;;;;;;;;;;4988158;28;92250;-75
2024/01/04 08:34:02;;;;;;;1.27;0.50;;;;;;;;;;4995417;28;92161;-75
2024/01/04 08:36:30;;;;;;;6.30;1.90;;;;;;;;;;4994993;28;92585;-75
2024/01/04 08:38:56;;;;;;;1.95;0.85;;;;;;;;;;4996070;28;92495;-74
2024/01/04 08:41:23;;;;;;;5.18;0.88;;;;;;;;;;4996989;28;94659;-74
2024/01/04 08:43:49;;;;;;;1.50;0.73;;;;;;;;;;4995057;28;93021;-74
2024/01/04 08:46:16;;;;;;;1.52;0.70;;;;;;;;;;4993036;28;94063;-75
2024/01/04 08:48:43;;;;;;;1.73;0.98;;;;;;;;;;4995100;28;92026;-75
2024/01/04 08:51:09;;;;;;;0.80;0.65;;;;;;;;;;4995534;28;92644;-74
2024/01/04 08:53:37;;;;;;;0.80;0.70;;;;;;;;;;5002058;28;92474;-75
2024/01/04 08:56:08;;;;;;;0.80;0.80;;;;;;;;;;4994659;28;93029;-75
2024/01/04 08:58:35;;;;;;;2.03;1.47;;;;;;;;;;4999960;28;92008;-75
2024/01/04 09:01:02;;;;;;;1.83;0.65;;;;;;;;;;5000449;28;92114;-76
2024/01/04 09:03:28;;;;;;;0.95;0.50;;;;;;;;;;5001973;28;92462;-75
2024/01/04 09:05:55;;;;;;;2.88;0.68;;;;;;;;;;5006942;28;94312;-76
2024/01/04 09:08:21;;;;;;;1.63;0.85;;;;;;;;;;4994747;28;92275;-75
2024/01/04 09:10:49;;;;;;;2.65;0.60;;;;;;;;;;5009347;28;92382;-75
2024/01/04 09:13:15;;;;;;;2.60;0.82;;;;;;;;;;4997083;28;92483;-75
2024/01/04 09:15:42;;;;;;;1.40;0.80;;;;;;;;;;4994368;28;92186;-75
2024/01/04 09:18:08;;;;;;;5.60;1.35;;;;;;;;;;4996349;28;92354;-76
2024/01/04 09:20:35;;;;;;;3.75;0.77;;;;;;;;;;4993968;28;92388;-75
2024/01/04 09:23:02;;;;;;;4.95;1.17;;;;;;;;;;4998765;28;92565;-75
2024/01/04 09:25:29;;;;;;;1.38;0.80;;;;;;;;;;4994853;28;92644;-75
2024/01/04 09:27:56;;;;;;;5.45;0.70;;;;;;;;;;4994689;28;92561;-76
2024/01/04 09:30:22;;;;;;;1.60;0.70;;;;;;;;;;4995359;28;94355;-76
2024/01/04 09:32:49;;;;;;;9.60;0.75;;;;;;;;;;4995683;28;95232;-77
2024/01/04 09:35:20;;;;;;;1.65;0.77;;;;;;;;;;4993540;28;92553;-75
2024/01/04 09:37:50;;;;;;;1.75;0.63;;;;;;;;;;4997140;28;92550;-76
2024/01/04 09:40:17;;;;;;;2.53;1.42;;;;;;;;;;5003813;28;92352;-77
2024/01/04 09:42:43;;;;;;;4.10;1.38;;;;;;;;;;5010731;28;94135;-76
2024/01/04 09:45:13;;;;;;;1.27;0.75;;;;;;;;;;5001374;28;94411;-75
2024/01/04 09:47:42;;;;;;;1.75;0.95;;;;;;;;;;4999907;28;92464;-77
2024/01/04 09:50:10;;;;;;;0.75;0.45;;;;;;;;;;4992531;28;92657;-76
2024/01/04 09:52:42;;;;;;;0.80;0.40;;;;;;;;;;4994904;28;92443;-75
2024/01/04 09:55:09;;;;;;;0.68;0.68;;;;;;;;;;4991261;28;94723;-75
2024/01/04 09:57:36;;;;;;;0.75;0.50;;;;;;;;;;5001705;28;92904;-76
2024/01/04 10:00:04;;;;;;;1.60;0.88;;;;;;;;;;5012044;28;92367;-75
2024/01/04 10:02:39;;;;;;;1.08;0.68;;;;;;;;;;5005636;28;92113;-76
2024/01/04 10:05:06;;;;;;;0.68;0.40;;;;;;;;;;5009640;28;92913;-76
2024/01/04 10:07:37;;;;;;;1.67;0.70;;;;;;;;;;5012492;28;92826;-75
2024/01/04 10:10:05;;;;;;;0.38;0.38;;;;;;;;;;4999470;28;92995;-75
2024/01/04 10:12:32;;;;;;;0.47;0.40;;;;;;;;;;5005768;28;94975;-76
2024/01/04 10:14:59;;;;;;;2.08;0.60;;;;;;;;;;4992659;28;92138;-75
2024/01/04 10:17:26;;;;;;;1.38;0.50;;;;;;;;;;4992926;28;92919;-76
2024/01/04 10:19:52;;;;;;;1.80;0.50;;;;;;;;;;5003767;28;94621;-77
2024/01/04 10:22:21;;;;;;;1.27;0.55;;;;;;;;;;4992779;28;92945;-76
2024/01/04 10:24:47;;;;;;;1.95;0.70;;;;;;;;;;4989869;28;92342;-77
2024/01/04 10:27:14;;;;;;;1.15;0.90;;;;;;;;;;4990237;28;92879;-75
2024/01/04 10:29:44;;;;;;;1.30;0.45;;;;;;;;;;4993820;28;92881;-75
2024/01/04 10:32:12;;;;;;;0.60;0.50;;;;;;;;;;4992357;28;92447;-76
2024/01/04 10:34:39;;;;;;;2.15;0.65;;;;;;;;;;4992190;28;94013;-75
2024/01/04 10:37:09;;;;;;;0.63;0.57;;;;;;;;;;4993021;28;92156;-76
2024/01/04 10:39:36;;;;;;;0.47;0.47;;;;;;;;;;4993079;28;92479;-76
2024/01/04 10:42:03;;;;;;;0.40;0.40;;;;;;;;;;4992480;28;92337;-76
2024/01/04 10:44:29;;;;;;;0.38;0.30;;;;;;;;;;4995476;28;94868;-75
2024/01/04 10:46:56;;;;;;;1.27;0.60;;;;;;;;;;5002250;28;94041;-76
2024/01/04 10:49:23;;;;;;;0.38;0.35;;;;;;;;;;5002398;28;92410;-76
2024/01/04 10:51:51;;;;;;;1.65;0.93;;;;;;;;;;4995319;28;92429;-75
2024/01/04 10:54:18;;;;;;;1.13;0.55;;;;;;;;;;4991319;28;93053;-76
2024/01/04 10:56:45;;;;;;;0.55;0.50;;;;;;;;;;4991678;28;92744;-76
2024/01/04 10:59:11;;;;;;;1.40;0.50;;;;;;;;;;5011227;28;92449;-81
2024/01/04 11:01:41;;;;;;;5.95;0.40;;;;;;;;;;5010261;28;92021;-80
2024/01/04 11:04:08;;;;;;;1.35;0.75;;;;;;;;;;5013476;28;92665;-80
2024/01/04 11:06:40;;;;;;;1.90;0.60;;;;;;;;;;5026717;28;92504;-84
2024/01/04 11:09:09;;;;;;;0.73;0.60;;;;;;;;;;5019358;28;94707;-79
2024/01/04 11:11:36;;;;;;;1.38;0.38;;;;;;;;;;5018914;28;93020;-84
2024/01/04 11:14:02;;;;;;;1.50;0.60;;;;;;;;;;5010593;28;93363;-83
2024/01/04 11:16:49;;;;;;;2.10;0.80;;;;;;;;;;5010435;28;92450;-84
2024/01/04 11:19:34;;;;;;;0.45;0.45;;;;;;;;;;5014457;28;92284;-77
2024/01/04 11:22:07;;;;;;;0.57;0.45;;;;;;;;;;5006912;28;93230;-84
2024/01/04 11:24:49;;;;;;;1.17;0.45;;;;;;;;;;5010069;28;92698;-77
2024/01/04 11:27:17;;;;;;;2.20;0.60;;;;;;;;;;4991310;28;95008;-76
2024/01/04 11:29:44;;;;;;;0.65;0.40;;;;;;;;;;5008104;28;92377;-75
2024/01/04 11:32:11;;;;;;;0.63;0.38;;;;;;;;;;5001934;28;92418;-75
2024/01/04 11:34:41;;;;;;;1.92;0.80;;;;;;;;;;5005184;28;94820;-76
2024/01/04 11:37:09;;;;;;;1.75;0.40;;;;;;;;;;5001008;28;93877;-75
2024/01/04 11:39:54;;;;;;;0.82;0.43;;;;;;;;;;5003605;28;93638;-77
2024/01/04 11:42:30;;;;;;;2.05;0.57;;;;;;;;;;5002666;28;93052;-77
2024/01/04 11:44:58;;;;;;;8.43;0.60;;;;;;;;;;5008225;28;93136;-79
2024/01/04 11:47:24;;;;;;;0.47;0.30;;;;;;;;;;5006962;28;92755;-81
2024/01/04 11:50:00;;;;;;;1.70;0.70;;;;;;;;;;5010174;28;94578;-80
2024/01/04 11:52:38;;;;;;;0.40;0.40;;;;;;;;;;5010122;28;91738;-78
2024/01/04 11:55:05;;;;;;;4.43;0.88;;;;;;;;;;5006009;28;92471;-76
2024/01/04 11:57:32;;;;;;;2.35;0.47;;;;;;;;;;5008402;28;92640;-76
2024/01/04 11:59:58;;;;;;;1.25;0.50;;;;;;;;;;5006483;28;94896;-75
2024/01/04 12:02:25;;;;;;;2.00;0.50;;;;;;;;;;5005838;28;94094;-76
2024/01/04 12:04:52;;;;;;;0.68;0.47;;;;;;;;;;5006779;28;92362;-75
2024/01/04 12:07:18;;;;;;;0.52;0.38;;;;;;;;;;5009750;28;94182;-75
2024/01/04 12:09:54;;;;;;;1.20;0.30;;;;;;;;;;5004952;28;92650;-75
2024/01/04 12:12:20;;;;;;;1.38;0.55;;;;;;;;;;5008055;28;93217;-75
2024/01/04 12:14:47;;;;;;;7.93;0.65;;;;;;;;;;5005533;28;92798;-75
2024/01/04 12:17:13;;;;;;;3.45;0.70;;;;;;;;;;5011586;28;92393;-75
2024/01/04 12:19:40;;;;;;;1.35;0.40;;;;;;;;;;5009001;28;92663;-75
2024/01/04 12:22:06;;;;;;;1.33;0.60;;;;;;;;;;5004313;28;92743;-76
2024/01/04 12:24:33;;;;;;;2.00;0.85;;;;;;;;;;5009095;28;94717;-76
2024/01/04 12:27:00;;;;;;;0.90;0.60;;;;;;;;;;5005637;28;93913;-75
2024/01/04 12:29:27;;;;;;;1.20;0.43;;;;;;;;;;5002871;28;93957;-75
2024/01/04 12:31:54;;;;;;;5.10;0.38;;;;;;;;;;5009038;28;92431;-76
2024/01/04 12:34:21;;;;;;;2.28;0.50;;;;;;;;;;5000101;28;92535;-75
2024/01/04 12:36:47;;;;;;;4.72;0.73;;;;;;;;;;5001627;28;92734;-75
2024/01/04 12:39:14;;;;;;;0.65;0.40;;;;;;;;;;5002525;28;93963;-75
2024/01/04 12:41:44;;;;;;;3.22;0.70;;;;;;;;;;5000302;28;92033;-75
2024/01/04 12:44:12;;;;;;;2.40;0.70;;;;;;;;;;4997781;28;92660;-75
2024/01/04 12:46:39;;;;;;;4.93;0.57;;;;;;;;;;5007371;28;94804;-73
2024/01/04 12:49:10;;;;;;;2.20;0.77;;;;;;;;;;5007479;28;95435;-74
2024/01/04 12:51:39;;;;;;;0.60;0.60;;;;;;;;;;5012129;27;92958;-76
2024/01/04 12:54:06;;;;;;;12.68;0.80;;;;;;;;;;5009196;28;94224;-75
2024/01/04 12:56:34;;;;;;;8.32;0.75;;;;;;;;;;5008562;28;93508;-75
2024/01/04 12:59:12;;;;;;;9.02;0.63;;;;;;;;;;5008681;28;92926;-75
2024/01/04 13:01:38;;;;;;;1.17;0.52;;;;;;;;;;4994371;28;92864;-76
2024/01/04 13:04:07;;;;;;;1.33;0.50;;;;;;;;;;4993404;28;92673;-75
2024/01/04 13:06:34;;;;;;;0.95;0.40;;;;;;;;;;4999784;28;92256;-75
2024/01/04 13:09:00;;;;;;;3.53;0.68;;;;;;;;;;4992354;28;94809;-75
2024/01/04 13:11:27;;;;;;;2.10;0.70;;;;;;;;;;4992942;28;92432;-76
2024/01/04 13:13:53;;;;;;;2.03;0.77;;;;;;;;;;4992090;28;94976;-76
2024/01/04 13:16:19;;;;;;;1.42;0.70;;;;;;;;;;4995342;28;93266;-76
2024/01/04 13:18:46;;;;;;;1.25;0.68;;;;;;;;;;5003739;28;92535;-75
2024/01/04 13:21:13;;;;;;;1.58;0.60;;;;;;;;;;4993142;28;92741;-76
2024/01/04 13:23:40;;;;;;;0.95;0.55;;;;;;;;;;4996169;28;92405;-75
2024/01/04 13:26:07;;;;;;;0.93;0.40;;;;;;;;;;4998618;28;93187;-75
2024/01/04 13:28:33;;;;;;;0.45;0.40;;;;;;;;;;4998401;28;92396;-75
2024/01/04 13:31:00;;;;;;;1.98;0.70;;;;;;;;;;5001738;28;93776;-75
2024/01/04 13:33:26;;;;;;;0.60;0.40;;;;;;;;;;5003527;28;92420;-75
2024/01/04 13:35:55;;;;;;;1.08;0.52;;;;;;;;;;4996899;28;92400;-75
2024/01/04 13:38:22;;;;;;;0.40;0.40;;;;;;;;;;4996971;28;94873;-75
2024/01/04 13:40:48;;;;;;;1.77;0.60;;;;;;;;;;4993365;28;93927;-75
2024/01/04 13:43:14;;;;;;;5.95;0.60;;;;;;;;;;4998535;28;93256;-75
2024/01/04 13:45:41;;;;;;;5.22;0.60;;;;;;;;;;4996081;28;92342;-76
2024/01/04 13:48:08;;;;;;;0.93;0.40;;;;;;;;;;4992998;28;92995;-76
2024/01/04 13:50:34;;;;;;;1.30;0.40;;;;;;;;;;4992580;28;93235;-75
2024/01/04 13:53:03;;;;;;;2.80;0.45;;;;;;;;;;4994792;28;92257;-75
2024/01/04 13:55:30;;;;;;;1.58;0.50;;;;;;;;;;4999246;28;91833;-75
2024/01/04 13:57:56;;;;;;;7.95;0.70;;;;;;;;;;4992985;28;92419;-75
2024/01/04 14:00:23;;;;;;;1.15;0.30;;;;;;;;;;4999676;28;92361;-75
2024/01/04 14:02:49;;;;;;;1.95;0.57;;;;;;;;;;4992906;28;95690;-75
2024/01/04 14:05:16;;;;;;;0.60;0.35;;;;;;;;;;4998367;28;92600;-77
2024/01/04 14:07:43;;;;;;;2.67;0.50;;;;;;;;;;5000203;28;92849;-74
2024/01/04 14:10:10;;;;;;;2.10;0.45;;;;;;;;;;5000485;28;92875;-76
2024/01/04 14:12:37;;;;;;;3.85;0.57;;;;;;;;;;5000540;28;92408;-76
2024/01/04 14:15:06;;;;;;;1.77;0.60;;;;;;;;;;4993308;28;93259;-75
2024/01/04 14:17:33;;;;;;;3.08;0.43;;;;;;;;;;5002864;28;92502;-75
2024/01/04 14:20:00;;;;;;;1.27;0.82;;;;;;;;;;4993603;28;92004;-75
2024/01/04 14:22:27;;;;;;;6.93;0.40;;;;;;;;;;5006552;28;93262;-74
2024/01/04 14:24:55;;;;;;;0.75;0.60;;;;;;;;;;5009190;28;92934;-76
2024/01/04 14:27:21;;;;;;;1.20;0.57;;;;;;;;;;5006939;28;94888;-75
2024/01/04 14:29:51;;;;;;;1.20;0.68;;;;;;;;;;5002696;28;92894;-75
2024/01/04 14:32:18;;;;;;;5.18;0.75;;;;;;;;;;5002834;28;92489;-75
2024/01/04 14:34:45;;;;;;;1.55;0.63;;;;;;;;;;4999925;28;92403;-76
2024/01/04 14:37:11;;;;;;;4.18;0.70;;;;;;;;;;4995434;28;92511;-75
2024/01/04 14:39:38;;;;;;;3.08;1.10;;;;;;;;;;4997892;28;92894;-76
2024/01/04 14:42:04;;;;;;;1.73;0.77;;;;;;;;;;4996973;28;93376;-76
2024/01/04 14:44:32;;;;;;;2.47;1.05;;;;;;;;;;5003336;28;92918;-77